Motocross, GP Gran Bretagna 2015: seconda vittoria stagionale per Tony Cairoli

Tony-Cairoli-Motocross-Foto-Cattagni1.jpg

Arrivano ottime notizie dal tracciato di Matterley Basin (Gran Bretagna) in chiave azzurra e Tony Cairoli. Il pilota della KTM ha infatti conquistato la vittoria del round britannico su uno dei tracciati più difficili del Mondiale di MXGP lungo 1750m. Tony con un primo e un terzo posto in gara-1 e gara-2 si è aggiudicato l’appuntamento inglese impressionando, soprattutto, nella prima manche per la forma fisica ritrovata e una guida estremamente redditizia nel confronto diretto con i suoi rivali. 45 punti importantissimi che lo riavvicinano alla testa del mondiale occupata sempre dal tedesco Maximilian Nagl, terzo e quinto nelle due gare di quest’oggi, con 295 punti e davanti al belga Clement Daselle a soli 4 punti dal pilota della Husqvarna per effetto dei due secondi posti a Matterley Basin. Un Desalle, infatti, che ha confermato una grande consistenza, fattore determinante per poter lottare per il titolo iridato, a dispetto di altre annate nelle quali il driver della Suzuki peccava in termini di continuità. Per la cronaca, gara-2 se l’è aggiudicata il francese Romain Febvre, al primo acuto stagionale su Yamaha.

Tornando all’analisi della classifica generale, troviamo proprio Cairoli a quota 274 punti in terza posizione e a -21 dal leader. La montagna da scalare è ancora ripida, tuttavia il nostro portacolori ha confermato di aver ritrovato la condizione psicofisica giusta. Il prossimo round in Francia,tra una settimana, sarà un’altra tappa fondamentale per il tentativo di rimonta del pilota di Patti e c’è da scommetterci che il nostro Tony ce la metterà tutta per farci sognare nuovamente!

ORDINE DI ARRIVO GARA 1:

Pos Nr Rider Nat. Fed. Bike Time laps Diff. First Diff. Prev. Bestlaptime in lap Speed
1 222 Cairoli, Antonio ITA FMI KTM 34:01.346 17 0:00.000 0:00.000 1:52.540 6 52
2 25 Desalle, Clement BEL FMB Suzuki 34:04.366 17 0:03.020 0:03.020 1:52.063 5 53
3 12 Nagl, Maximilian GER DMSB Husqvarna 34:05.413 17 0:04.067 0:01.047 1:52.011 16 53
4 777 Bobryshev, Evgeny RUS FSM Honda 34:15.022 17 0:13.676 0:09.609 1:52.302 13 53
5 24 Simpson, Shaun GBR ACU KTM 34:17.715 17 0:16.369 0:02.693 1:53.037 8 52
6 21 Paulin, Gautier FRA MCM Honda 34:19.026 17 0:17.680 0:01.311 1:53.013 17 52
7 461 Febvre, Romain FRA FFM Yamaha 34:20.630 17 0:19.284 0:01.604 1:52.658 17 52
8 28 Rattray, Tyla RSA MSA Kawasaki 34:36.209 17 0:34.863 0:15.579 1:53.634 5 52
9 47 Waters, Todd AUS MA Husqvarna 34:40.201 17 0:38.855 0:03.992 1:53.516 7 52
10 89 Van Horebeek, Jeremy BEL FMB Yamaha 34:43.201 17 0:41.855 0:03.000 1:54.265 4 52
11 9 de Dycker, Ken BEL FMB KTM 34:47.254 17 0:45.908 0:04.053 1:53.973 7 52
12 19 Philippaerts, David ITA FMI Yamaha 34:50.307 17 0:48.961 0:03.053 1:52.706 6 52
13 111 Ferris, Dean AUS MA Husqvarna 34:53.238 17 0:51.892 0:02.931 1:54.065 8 52
14 17 Butron, Jose ESP RFME KTM 34:53.602 17 0:52.256 0:00.364 1:54.432 11 52
15 77 Lupino, Alessandro ITA FMI Honda 34:56.871 17 0:55.525 0:03.269 1:54.983 6 51
16 259 Coldenhoff, Glenn NED KNMV Suzuki 35:09.531 17 1:08.185 0:12.660 1:55.664 9 51
17 121 Boog, Xavier FRA FFM Kawasaki 35:25.649 17 1:24.303 0:16.118 1:55.764 4 51
18 600 Ivanovs, Davis LAT LAMSF Kawasaki 35:49.638 17 1:48.292 0:23.989 1:56.917 3 50
19 55 Irwin, Graeme GBR MCUI Suzuki 35:54.254 17 1:52.908 0:04.616 1:56.883 4 51
20 400 Yamamoto, Kei JPN MFJ Honda 36:08.448 17 2:07.102 0:14.194 1:56.434 5 51
21 149 Ullrich, Dennis GER DMSB Suzuki 34:23.569 16 1 lap 1 lap 1:57.588 11 50
22 800 Alessi, Mike USA AMA Suzuki 34:29.526 16 1 lap 0:05.957 1:58.414 5 50
23 112 Gregory, Lewis GBR ACU Yamaha 34:51.140 16 1 lap 0:21.614 2:00.033 6 49
24 250 Fura, Richard FRA FFM Kawasaki 34:52.129 16 1 lap 0:00.989 1:58.895 4 50
25 62 Gercar, Klemen SLO AMZS Husqvarna 35:00.838 16 1 lap 0:08.709 1:59.453 7 49
26 183 Frossard, Steven FRA FFM KTM 6:08.428 2 15 laps 14 laps 1:57.461 1 50

 

ORDINE DI ARRIVO GARA-2

Pos Nr Rider Nat. Fed. Bike Time laps Diff. First Diff. Prev. Bestlaptime in lap Speed
1 461 Febvre, Romain FRA FFM Yamaha 34:18.842 17 0:00.000 0:00.000 1:52.804 11 52
2 25 Desalle, Clement BEL FMB Suzuki 34:20.929 17 0:02.087 0:02.087 1:52.826 15 52
3 222 Cairoli, Antonio ITA FMI KTM 34:28.506 17 0:09.664 0:07.577 1:53.280 9 52
4 777 Bobryshev, Evgeny RUS FSM Honda 34:32.232 17 0:13.390 0:03.726 1:53.348 12 52
5 12 Nagl, Maximilian GER DMSB Husqvarna 34:41.991 17 0:23.149 0:09.759 1:54.449 9 52
6 24 Simpson, Shaun GBR ACU KTM 34:46.629 17 0:27.787 0:04.638 1:54.912 9 51
7 21 Paulin, Gautier FRA MCM Honda 34:49.656 17 0:30.814 0:03.027 1:54.332 6 52
8 9 de Dycker, Ken BEL FMB KTM 34:58.567 17 0:39.725 0:08.911 1:54.215 3 52
9 89 Van Horebeek, Jeremy BEL FMB Yamaha 35:00.812 17 0:41.970 0:02.245 1:54.406 7 52
10 183 Frossard, Steven FRA FFM KTM 35:02.192 17 0:43.350 0:01.380 1:54.873 4 51
11 28 Rattray, Tyla RSA MSA Kawasaki 35:04.665 17 0:45.823 0:02.473 1:55.103 7 51
12 17 Butron, Jose ESP RFME KTM 35:08.299 17 0:49.457 0:03.634 1:55.660 9 51
13 77 Lupino, Alessandro ITA FMI Honda 35:14.016 17 0:55.174 0:05.717 1:55.632 10 51
14 259 Coldenhoff, Glenn NED KNMV Suzuki 35:17.595 17 0:58.753 0:03.579 1:56.092 4 51
15 19 Philippaerts, David ITA FMI Yamaha 35:20.811 17 1:01.969 0:03.216 1:55.973 5 51
16 47 Waters, Todd AUS MA Husqvarna 35:35.427 17 1:16.585 0:14.616 1:56.002 6 51
17 800 Alessi, Mike USA AMA Suzuki 35:41.810 17 1:22.968 0:06.383 1:57.215 15 50
18 111 Ferris, Dean AUS MA Husqvarna 35:48.688 17 1:29.846 0:06.878 1:56.315 3 51
19 121 Boog, Xavier FRA FFM Kawasaki 35:50.242 17 1:31.400 0:01.554 1:56.667 4 51
20 149 Ullrich, Dennis GER DMSB Suzuki 36:08.693 17 1:49.851 0:18.451 1:58.002 4 50
21 250 Fura, Richard FRA FFM Kawasaki 34:38.894 16 1 lap 1 lap 1:58.536 7 50
22 400 Yamamoto, Kei JPN MFJ Honda 34:43.504 16 1 lap 0:04.610 1:58.755 3 50
23 55 Irwin, Graeme GBR MCUI Suzuki 35:16.343 16 1 lap 0:32.839 1:59.714 6 49
24 62 Gercar, Klemen SLO AMZS Husqvarna 35:45.533 16 1 lap 0:29.190 2:02.043 5 48
25 600 Ivanovs, Davis LAT LAMSF Kawasaki 12:33.121 5 12 laps 11 laps 2:01.169 3 49
26 112 Gregory, Lewis GBR ACU Yamaha 10:33.418 4 13 laps 1 lap 2:02.472 2 48

 

Clicca qui per mettere “Mi piace” alla nostra pagina Facebook
Clicca qui per iscriverti al nostro gruppo
Clicca qui per seguirci su Twitter

giandomenico.tiseo@oasport.it

FOTOCATTAGNI

Twitter: @Giandomatrix

Lascia un commento

Top